sensor_id;sensor_type;location;lat;lon;timestamp;temperature;humidity
32839;DHT22;19182;41.820;12.808;2022-12-18T00:01:17;9.40;99.90
32839;DHT22;19182;41.820;12.808;2022-12-18T00:03:43;9.50;99.90
32839;DHT22;19182;41.820;12.808;2022-12-18T00:06:12;9.50;99.90
32839;DHT22;19182;41.820;12.808;2022-12-18T00:08:39;9.60;99.90
32839;DHT22;19182;41.820;12.808;2022-12-18T00:11:05;9.60;99.90
32839;DHT22;19182;41.820;12.808;2022-12-18T00:13:31;9.70;99.90
32839;DHT22;19182;41.820;12.808;2022-12-18T00:16:01;9.70;99.90
32839;DHT22;19182;41.820;12.808;2022-12-18T00:18:27;9.70;99.90
32839;DHT22;19182;41.820;12.808;2022-12-18T00:20:52;9.70;99.90
32839;DHT22;19182;41.820;12.808;2022-12-18T00:23:18;9.80;99.90
32839;DHT22;19182;41.820;12.808;2022-12-18T00:25:43;9.80;99.90
32839;DHT22;19182;41.820;12.808;2022-12-18T00:28:09;9.80;99.90
32839;DHT22;19182;41.820;12.808;2022-12-18T00:30:34;9.80;99.90
32839;DHT22;19182;41.820;12.808;2022-12-18T00:33:00;9.80;99.90
32839;DHT22;19182;41.820;12.808;2022-12-18T00:35:25;9.80;99.90
32839;DHT22;19182;41.820;12.808;2022-12-18T00:37:51;9.80;99.90
32839;DHT22;19182;41.820;12.808;2022-12-18T00:40:17;9.90;99.90
32839;DHT22;19182;41.820;12.808;2022-12-18T00:42:42;9.80;99.90
32839;DHT22;19182;41.820;12.808;2022-12-18T00:45:24;9.80;99.90
32839;DHT22;19182;41.820;12.808;2022-12-18T00:47:50;9.80;99.90
32839;DHT22;19182;41.820;12.808;2022-12-18T00:50:16;9.90;99.90
32839;DHT22;19182;41.820;12.808;2022-12-18T00:52:42;9.90;99.90
32839;DHT22;19182;41.820;12.808;2022-12-18T00:55:08;9.90;99.90
32839;DHT22;19182;41.820;12.808;2022-12-18T00:57:34;9.80;99.90
32839;DHT22;19182;41.820;12.808;2022-12-18T00:59:59;9.90;99.90
32839;DHT22;19182;41.820;12.808;2022-12-18T01:02:25;9.90;99.90
32839;DHT22;19182;41.820;12.808;2022-12-18T01:04:50;9.90;99.90
32839;DHT22;19182;41.820;12.808;2022-12-18T01:07:16;7.10;99.90
32839;DHT22;19182;41.820;12.808;2022-12-18T01:09:41;9.80;99.90
32839;DHT22;19182;41.820;12.808;2022-12-18T01:12:07;9.80;99.90
32839;DHT22;19182;41.820;12.808;2022-12-18T01:14:32;9.90;99.90
32839;DHT22;19182;41.820;12.808;2022-12-18T01:17:08;9.90;99.90
32839;DHT22;19182;41.820;12.808;2022-12-18T01:19:33;9.90;99.90
32839;DHT22;19182;41.820;12.808;2022-12-18T01:21:59;9.90;99.90
32839;DHT22;19182;41.820;12.808;2022-12-18T01:24:25;9.70;99.90
32839;DHT22;19182;41.820;12.808;2022-12-18T01:26:50;9.70;99.90
32839;DHT22;19182;41.820;12.808;2022-12-18T01:29:16;9.80;99.90
32839;DHT22;19182;41.820;12.808;2022-12-18T01:31:41;9.70;99.90
32839;DHT22;19182;41.820;12.808;2022-12-18T01:34:08;9.80;99.90
32839;DHT22;19182;41.820;12.808;2022-12-18T01:36:34;9.80;99.90
32839;DHT22;19182;41.820;12.808;2022-12-18T01:39:01;9.80;99.90
32839;DHT22;19182;41.820;12.808;2022-12-18T01:41:28;9.90;99.90
32839;DHT22;19182;41.820;12.808;2022-12-18T01:50:07;9.70;99.90
32839;DHT22;19182;41.820;12.808;2022-12-18T01:52:33;9.70;99.90
32839;DHT22;19182;41.820;12.808;2022-12-18T01:55:00;9.70;99.90
32839;DHT22;19182;41.820;12.808;2022-12-18T01:59:55;9.70;99.90
32839;DHT22;19182;41.820;12.808;2022-12-18T02:02:22;9.50;99.90
32839;DHT22;19182;41.820;12.808;2022-12-18T02:04:49;9.60;99.90
32839;DHT22;19182;41.820;12.808;2022-12-18T02:10:10;9.70;99.90
32839;DHT22;19182;41.820;12.808;2022-12-18T02:12:42;9.70;99.90
32839;DHT22;19182;41.820;12.808;2022-12-18T02:17:59;9.60;99.90
32839;DHT22;19182;41.820;12.808;2022-12-18T02:21:29;9.60;99.90
32839;DHT22;19182;41.820;12.808;2022-12-18T02:23:39;9.60;99.90
32839;DHT22;19182;41.820;12.808;2022-12-18T02:26:12;9.50;99.90
32839;DHT22;19182;41.820;12.808;2022-12-18T02:29:26;9.50;99.90
32839;DHT22;19182;41.820;12.808;2022-12-18T02:31:35;9.50;99.90
32839;DHT22;19182;41.820;12.808;2022-12-18T02:34:02;9.50;99.90
32839;DHT22;19182;41.820;12.808;2022-12-18T02:36:29;9.50;99.90
32839;DHT22;19182;41.820;12.808;2022-12-18T02:38:56;9.40;99.90
32839;DHT22;19182;41.820;12.808;2022-12-18T02:41:23;9.30;99.90
32839;DHT22;19182;41.820;12.808;2022-12-18T02:43:52;9.20;99.90
32839;DHT22;19182;41.820;12.808;2022-12-18T02:57:36;9.10;99.90
32839;DHT22;19182;41.820;12.808;2022-12-18T03:00:24;9.00;99.90
32839;DHT22;19182;41.820;12.808;2022-12-18T03:05:17;8.90;99.90
32839;DHT22;19182;41.820;12.808;2022-12-18T03:07:46;8.90;99.90
32839;DHT22;19182;41.820;12.808;2022-12-18T03:10:14;8.90;99.90
32839;DHT22;19182;41.820;12.808;2022-12-18T03:12:43;8.80;99.90
32839;DHT22;19182;41.820;12.808;2022-12-18T03:15:14;8.70;99.90
32839;DHT22;19182;41.820;12.808;2022-12-18T03:17:44;8.60;99.90
32839;DHT22;19182;41.820;12.808;2022-12-18T03:20:14;8.50;99.90
32839;DHT22;19182;41.820;12.808;2022-12-18T03:22:51;8.50;99.90
32839;DHT22;19182;41.820;12.808;2022-12-18T03:25:19;8.40;99.90
32839;DHT22;19182;41.820;12.808;2022-12-18T03:27:47;8.40;99.90
32839;DHT22;19182;41.820;12.808;2022-12-18T03:30:14;8.60;99.90
32839;DHT22;19182;41.820;12.808;2022-12-18T03:35:39;8.20;99.90
32839;DHT22;19182;41.820;12.808;2022-12-18T03:38:05;8.10;99.90
32839;DHT22;19182;41.820;12.808;2022-12-18T03:40:34;8.10;99.90
32839;DHT22;19182;41.820;12.808;2022-12-18T03:43:11;8.10;99.90
32839;DHT22;19182;41.820;12.808;2022-12-18T03:45:42;8.20;99.90
32839;DHT22;19182;41.820;12.808;2022-12-18T03:53:06;8.40;99.90
32839;DHT22;19182;41.820;12.808;2022-12-18T03:55:33;8.30;99.90
32839;DHT22;19182;41.820;12.808;2022-12-18T03:58:00;8.40;99.90
32839;DHT22;19182;41.820;12.808;2022-12-18T04:00:27;5.40;99.90
32839;DHT22;19182;41.820;12.808;2022-12-18T04:02:53;8.40;99.90
32839;DHT22;19182;41.820;12.808;2022-12-18T04:05:20;8.40;99.90
32839;DHT22;19182;41.820;12.808;2022-12-18T04:07:46;8.30;99.90
32839;DHT22;19182;41.820;12.808;2022-12-18T04:10:12;8.30;99.90
32839;DHT22;19182;41.820;12.808;2022-12-18T04:12:39;8.30;99.90
32839;DHT22;19182;41.820;12.808;2022-12-18T04:15:05;8.30;99.90
32839;DHT22;19182;41.820;12.808;2022-12-18T04:17:30;8.20;99.90
32839;DHT22;19182;41.820;12.808;2022-12-18T04:19:56;8.10;99.90
32839;DHT22;19182;41.820;12.808;2022-12-18T04:22:23;8.10;99.90
32839;DHT22;19182;41.820;12.808;2022-12-18T04:24:53;8.20;99.90
32839;DHT22;19182;41.820;12.808;2022-12-18T04:27:18;8.30;99.90
32839;DHT22;19182;41.820;12.808;2022-12-18T04:29:45;8.40;99.90
32839;DHT22;19182;41.820;12.808;2022-12-18T04:32:14;8.40;99.90
32839;DHT22;19182;41.820;12.808;2022-12-18T04:34:39;8.50;99.90
32839;DHT22;19182;41.820;12.808;2022-12-18T04:37:05;8.40;99.90
32839;DHT22;19182;41.820;12.808;2022-12-18T04:39:30;8.20;99.90
32839;DHT22;19182;41.820;12.808;2022-12-18T04:41:56;8.30;99.90
32839;DHT22;19182;41.820;12.808;2022-12-18T04:44:22;8.20;99.90
32839;DHT22;19182;41.820;12.808;2022-12-18T04:46:48;8.10;99.90
32839;DHT22;19182;41.820;12.808;2022-12-18T04:49:14;8.10;99.90
32839;DHT22;19182;41.820;12.808;2022-12-18T04:51:40;8.00;99.90
32839;DHT22;19182;41.820;12.808;2022-12-18T04:54:05;8.00;99.90
32839;DHT22;19182;41.820;12.808;2022-12-18T04:56:31;7.90;99.90
32839;DHT22;19182;41.820;12.808;2022-12-18T04:58:57;7.70;99.90
32839;DHT22;19182;41.820;12.808;2022-12-18T05:01:22;9.70;99.90
32839;DHT22;19182;41.820;12.808;2022-12-18T05:03:48;7.50;99.90
32839;DHT22;19182;41.820;12.808;2022-12-18T05:06:16;7.60;99.90
32839;DHT22;19182;41.820;12.808;2022-12-18T05:08:42;7.60;99.90
32839;DHT22;19182;41.820;12.808;2022-12-18T05:11:08;7.60;99.90
32839;DHT22;19182;41.820;12.808;2022-12-18T05:13:35;7.60;99.90
32839;DHT22;19182;41.820;12.808;2022-12-18T05:16:01;7.50;99.90
32839;DHT22;19182;41.820;12.808;2022-12-18T05:18:26;7.40;99.90
32839;DHT22;19182;41.820;12.808;2022-12-18T05:20:52;7.40;99.90
32839;DHT22;19182;41.820;12.808;2022-12-18T05:23:19;7.40;99.90
32839;DHT22;19182;41.820;12.808;2022-12-18T05:26:04;7.40;99.90
32839;DHT22;19182;41.820;12.808;2022-12-18T05:28:30;7.30;99.90
32839;DHT22;19182;41.820;12.808;2022-12-18T05:30:58;7.20;99.90
32839;DHT22;19182;41.820;12.808;2022-12-18T05:33:26;7.30;99.90
32839;DHT22;19182;41.820;12.808;2022-12-18T05:35:52;7.40;99.90
32839;DHT22;19182;41.820;12.808;2022-12-18T05:38:19;7.30;99.90
32839;DHT22;19182;41.820;12.808;2022-12-18T05:40:44;7.30;99.90
32839;DHT22;19182;41.820;12.808;2022-12-18T05:43:10;7.40;99.90
32839;DHT22;19182;41.820;12.808;2022-12-18T05:45:37;7.50;99.90
32839;DHT22;19182;41.820;12.808;2022-12-18T05:48:04;7.50;99.90
32839;DHT22;19182;41.820;12.808;2022-12-18T05:50:30;7.50;99.90
32839;DHT22;19182;41.820;12.808;2022-12-18T05:52:55;7.50;99.90
32839;DHT22;19182;41.820;12.808;2022-12-18T05:55:21;7.40;99.90
32839;DHT22;19182;41.820;12.808;2022-12-18T05:57:46;7.30;99.90
32839;DHT22;19182;41.820;12.808;2022-12-18T06:00:12;7.20;99.90
32839;DHT22;19182;41.820;12.808;2022-12-18T06:02:39;7.30;99.90
32839;DHT22;19182;41.820;12.808;2022-12-18T06:05:05;7.30;99.90
32839;DHT22;19182;41.820;12.808;2022-12-18T06:07:31;7.30;99.90
32839;DHT22;19182;41.820;12.808;2022-12-18T06:09:56;7.40;99.90
32839;DHT22;19182;41.820;12.808;2022-12-18T06:12:22;7.40;99.90
32839;DHT22;19182;41.820;12.808;2022-12-18T06:14:47;7.40;99.90
32839;DHT22;19182;41.820;12.808;2022-12-18T06:17:13;7.40;99.90
32839;DHT22;19182;41.820;12.808;2022-12-18T06:19:38;7.30;99.90
32839;DHT22;19182;41.820;12.808;2022-12-18T06:22:04;7.30;99.90
32839;DHT22;19182;41.820;12.808;2022-12-18T06:24:29;7.40;99.90
32839;DHT22;19182;41.820;12.808;2022-12-18T06:26:55;7.50;99.90
32839;DHT22;19182;41.820;12.808;2022-12-18T06:29:22;7.50;99.90
32839;DHT22;19182;41.820;12.808;2022-12-18T06:31:49;7.40;99.90
32839;DHT22;19182;41.820;12.808;2022-12-18T06:34:16;7.30;99.90
32839;DHT22;19182;41.820;12.808;2022-12-18T06:36:41;7.20;99.90
32839;DHT22;19182;41.820;12.808;2022-12-18T06:39:07;7.20;99.90
32839;DHT22;19182;41.820;12.808;2022-12-18T06:41:33;7.10;99.90
32839;DHT22;19182;41.820;12.808;2022-12-18T06:43:59;7.10;99.90
32839;DHT22;19182;41.820;12.808;2022-12-18T06:46:24;7.20;99.90
32839;DHT22;19182;41.820;12.808;2022-12-18T06:48:50;7.30;99.90
32839;DHT22;19182;41.820;12.808;2022-12-18T06:51:19;7.40;99.90
32839;DHT22;19182;41.820;12.808;2022-12-18T06:53:45;7.40;99.90
32839;DHT22;19182;41.820;12.808;2022-12-18T06:56:11;7.50;99.90
32839;DHT22;19182;41.820;12.808;2022-12-18T06:58:37;7.40;99.90
32839;DHT22;19182;41.820;12.808;2022-12-18T07:01:04;7.50;99.90
32839;DHT22;19182;41.820;12.808;2022-12-18T07:03:31;7.50;99.90
32839;DHT22;19182;41.820;12.808;2022-12-18T07:05:57;7.60;99.90
32839;DHT22;19182;41.820;12.808;2022-12-18T07:08:22;7.50;99.90
32839;DHT22;19182;41.820;12.808;2022-12-18T07:10:48;7.50;99.90
32839;DHT22;19182;41.820;12.808;2022-12-18T07:13:14;7.60;99.90
32839;DHT22;19182;41.820;12.808;2022-12-18T07:15:40;7.70;99.90
32839;DHT22;19182;41.820;12.808;2022-12-18T07:18:06;7.80;99.90
32839;DHT22;19182;41.820;12.808;2022-12-18T07:20:31;7.80;99.90
32839;DHT22;19182;41.820;12.808;2022-12-18T07:22:58;7.80;99.90
32839;DHT22;19182;41.820;12.808;2022-12-18T07:25:23;7.80;99.90
32839;DHT22;19182;41.820;12.808;2022-12-18T07:27:52;7.80;99.90
32839;DHT22;19182;41.820;12.808;2022-12-18T07:30:17;7.80;99.90
32839;DHT22;19182;41.820;12.808;2022-12-18T07:32:43;7.90;99.90
32839;DHT22;19182;41.820;12.808;2022-12-18T07:35:11;7.80;99.90
32839;DHT22;19182;41.820;12.808;2022-12-18T07:37:37;7.90;99.90
32839;DHT22;19182;41.820;12.808;2022-12-18T07:40:02;8.20;99.90
32839;DHT22;19182;41.820;12.808;2022-12-18T07:42:28;8.30;99.90
32839;DHT22;19182;41.820;12.808;2022-12-18T07:44:57;8.50;99.90
32839;DHT22;19182;41.820;12.808;2022-12-18T07:47:23;8.70;99.90
32839;DHT22;19182;41.820;12.808;2022-12-18T07:49:49;8.70;99.90
32839;DHT22;19182;41.820;12.808;2022-12-18T07:52:14;9.00;99.90
32839;DHT22;19182;41.820;12.808;2022-12-18T07:54:40;10.00;99.90
32839;DHT22;19182;41.820;12.808;2022-12-18T07:57:06;11.50;99.90
32839;DHT22;19182;41.820;12.808;2022-12-18T07:59:32;12.50;99.90
32839;DHT22;19182;41.820;12.808;2022-12-18T08:01:57;14.60;99.90
32839;DHT22;19182;41.820;12.808;2022-12-18T08:04:24;16.20;99.90
32839;DHT22;19182;41.820;12.808;2022-12-18T08:06:49;17.60;99.90
32839;DHT22;19182;41.820;12.808;2022-12-18T08:09:16;18.80;99.90
32839;DHT22;19182;41.820;12.808;2022-12-18T08:11:53;19.30;99.90
32839;DHT22;19182;41.820;12.808;2022-12-18T08:14:31;19.40;99.90
32839;DHT22;19182;41.820;12.808;2022-12-18T08:16:57;20.30;99.90
32839;DHT22;19182;41.820;12.808;2022-12-18T08:19:23;20.60;99.90
32839;DHT22;19182;41.820;12.808;2022-12-18T08:21:50;20.20;99.90
32839;DHT22;19182;41.820;12.808;2022-12-18T08:24:16;19.90;99.90
32839;DHT22;19182;41.820;12.808;2022-12-18T08:26:41;19.30;99.90
32839;DHT22;19182;41.820;12.808;2022-12-18T08:29:08;19.10;99.90
32839;DHT22;19182;41.820;12.808;2022-12-18T08:31:33;19.40;99.90
32839;DHT22;19182;41.820;12.808;2022-12-18T08:33:59;20.20;99.90
32839;DHT22;19182;41.820;12.808;2022-12-18T08:36:25;21.50;99.90
32839;DHT22;19182;41.820;12.808;2022-12-18T08:38:50;22.10;99.90
32839;DHT22;19182;41.820;12.808;2022-12-18T08:41:16;23.10;99.90
32839;DHT22;19182;41.820;12.808;2022-12-18T08:43:42;23.40;99.90
32839;DHT22;19182;41.820;12.808;2022-12-18T08:46:27;23.30;99.90
32839;DHT22;19182;41.820;12.808;2022-12-18T08:48:56;24.50;99.90
32839;DHT22;19182;41.820;12.808;2022-12-18T08:51:21;25.70;99.90
32839;DHT22;19182;41.820;12.808;2022-12-18T08:53:47;26.00;99.90
32839;DHT22;19182;41.820;12.808;2022-12-18T08:56:13;26.20;99.90
32839;DHT22;19182;41.820;12.808;2022-12-18T08:58:39;26.60;99.90
32839;DHT22;19182;41.820;12.808;2022-12-18T09:01:09;26.50;99.90
32839;DHT22;19182;41.820;12.808;2022-12-18T09:03:35;26.60;99.90
32839;DHT22;19182;41.820;12.808;2022-12-18T09:06:00;26.50;99.90
32839;DHT22;19182;41.820;12.808;2022-12-18T09:08:26;26.20;99.90
32839;DHT22;19182;41.820;12.808;2022-12-18T09:10:52;25.40;99.90
32839;DHT22;19182;41.820;12.808;2022-12-18T09:13:18;26.10;99.90
32839;DHT22;19182;41.820;12.808;2022-12-18T09:15:44;26.40;99.90
32839;DHT22;19182;41.820;12.808;2022-12-18T09:18:13;26.30;99.90
32839;DHT22;19182;41.820;12.808;2022-12-18T09:20:40;27.50;99.90
32839;DHT22;19182;41.820;12.808;2022-12-18T09:23:05;28.80;99.00
32839;DHT22;19182;41.820;12.808;2022-12-18T09:25:32;29.00;96.20
32839;DHT22;19182;41.820;12.808;2022-12-18T09:28:19;27.80;95.90
32839;DHT22;19182;41.820;12.808;2022-12-18T09:30:48;27.00;96.30
32839;DHT22;19182;41.820;12.808;2022-12-18T09:33:14;27.10;97.30
32839;DHT22;19182;41.820;12.808;2022-12-18T09:35:40;27.30;97.40
32839;DHT22;19182;41.820;12.808;2022-12-18T09:38:06;28.00;94.60
32839;DHT22;19182;41.820;12.808;2022-12-18T09:40:35;26.50;95.90
32839;DHT22;19182;41.820;12.808;2022-12-18T09:43:03;25.90;98.10
32839;DHT22;19182;41.820;12.808;2022-12-18T09:45:36;26.40;98.20
32839;DHT22;19182;41.820;12.808;2022-12-18T09:48:04;27.10;96.90
32839;DHT22;19182;41.820;12.808;2022-12-18T09:50:33;28.00;96.60
32839;DHT22;19182;41.820;12.808;2022-12-18T09:53:02;29.50;94.20
32839;DHT22;19182;41.820;12.808;2022-12-18T09:55:34;29.60;92.70
32839;DHT22;19182;41.820;12.808;2022-12-18T09:58:04;30.50;90.90
32839;DHT22;19182;41.820;12.808;2022-12-18T10:00:31;29.30;91.80
32839;DHT22;19182;41.820;12.808;2022-12-18T10:03:00;28.70;92.90
32839;DHT22;19182;41.820;12.808;2022-12-18T10:07:57;30.50;89.80
32839;DHT22;19182;41.820;12.808;2022-12-18T10:10:31;31.60;87.20
32839;DHT22;19182;41.820;12.808;2022-12-18T10:13:11;32.20;83.00
32839;DHT22;19182;41.820;12.808;2022-12-18T10:20:54;30.90;81.00
32839;DHT22;19182;41.820;12.808;2022-12-18T10:28:13;30.60;81.40
32839;DHT22;19182;41.820;12.808;2022-12-18T10:30:40;30.20;78.90
32839;DHT22;19182;41.820;12.808;2022-12-18T10:33:09;30.70;78.80
32839;DHT22;19182;41.820;12.808;2022-12-18T10:35:35;31.40;76.30
32839;DHT22;19182;41.820;12.808;2022-12-18T10:38:02;31.90;75.00
32839;DHT22;19182;41.820;12.808;2022-12-18T10:40:28;30.50;75.10
32839;DHT22;19182;41.820;12.808;2022-12-18T10:45:29;31.80;74.40
32839;DHT22;19182;41.820;12.808;2022-12-18T10:47:54;32.80;76.10
32839;DHT22;19182;41.820;12.808;2022-12-18T10:52:58;33.10;67.70
32839;DHT22;19182;41.820;12.808;2022-12-18T10:55:31;34.20;68.50
32839;DHT22;19182;41.820;12.808;2022-12-18T10:58:43;34.40;64.10
32839;DHT22;19182;41.820;12.808;2022-12-18T11:00:44;33.90;64.80
32839;DHT22;19182;41.820;12.808;2022-12-18T11:03:28;33.20;65.70
32839;DHT22;19182;41.820;12.808;2022-12-18T11:08:29;33.50;65.20
32839;DHT22;19182;41.820;12.808;2022-12-18T11:10:56;32.70;65.80
32839;DHT22;19182;41.820;12.808;2022-12-18T11:13:24;31.70;71.40
32839;DHT22;19182;41.820;12.808;2022-12-18T11:15:50;32.10;68.90
32839;DHT22;19182;41.820;12.808;2022-12-18T11:18:29;31.80;69.50
32839;DHT22;19182;41.820;12.808;2022-12-18T11:21:11;32.00;69.20
32839;DHT22;19182;41.820;12.808;2022-12-18T11:23:37;31.70;68.10
32839;DHT22;19182;41.820;12.808;2022-12-18T11:26:10;31.10;69.60
32839;DHT22;19182;41.820;12.808;2022-12-18T11:29:07;30.70;69.60
32839;DHT22;19182;41.820;12.808;2022-12-18T11:31:36;29.50;71.60
32839;DHT22;19182;41.820;12.808;2022-12-18T11:36:38;30.20;70.60
32839;DHT22;19182;41.820;12.808;2022-12-18T11:50:20;22.70;93.50
32839;DHT22;19182;41.820;12.808;2022-12-18T11:52:47;22.30;97.30
32839;DHT22;19182;41.820;12.808;2022-12-18T11:56:01;21.90;96.70
32839;DHT22;19182;41.820;12.808;2022-12-18T12:00:47;21.90;96.90
32839;DHT22;19182;41.820;12.808;2022-12-18T12:08:32;20.10;99.90
32839;DHT22;19182;41.820;12.808;2022-12-18T12:14:07;19.50;99.90
32839;DHT22;19182;41.820;12.808;2022-12-18T12:16:46;19.70;99.90
32839;DHT22;19182;41.820;12.808;2022-12-18T12:27:08;19.20;99.90
32839;DHT22;19182;41.820;12.808;2022-12-18T12:32:17;18.70;99.90
32839;DHT22;19182;41.820;12.808;2022-12-18T12:35:12;18.40;99.90
32839;DHT22;19182;41.820;12.808;2022-12-18T12:37:49;18.20;99.90
32839;DHT22;19182;41.820;12.808;2022-12-18T12:40:18;18.20;99.90
32839;DHT22;19182;41.820;12.808;2022-12-18T12:42:46;18.30;99.90
32839;DHT22;19182;41.820;12.808;2022-12-18T12:45:46;18.90;99.90
32839;DHT22;19182;41.820;12.808;2022-12-18T12:48:46;18.00;99.90
32839;DHT22;19182;41.820;12.808;2022-12-18T12:51:19;17.90;99.90
32839;DHT22;19182;41.820;12.808;2022-12-18T12:53:45;17.50;99.90
32839;DHT22;19182;41.820;12.808;2022-12-18T12:56:19;17.40;99.90
32839;DHT22;19182;41.820;12.808;2022-12-18T13:04:21;16.90;99.90
32839;DHT22;19182;41.820;12.808;2022-12-18T13:07:03;16.80;99.90
32839;DHT22;19182;41.820;12.808;2022-12-18T13:09:33;17.00;99.90
32839;DHT22;19182;41.820;12.808;2022-12-18T13:12:10;16.80;99.90
32839;DHT22;19182;41.820;12.808;2022-12-18T13:14:55;16.90;99.90
32839;DHT22;19182;41.820;12.808;2022-12-18T13:17:37;16.90;99.90
32839;DHT22;19182;41.820;12.808;2022-12-18T13:20:04;16.90;99.90
32839;DHT22;19182;41.820;12.808;2022-12-18T13:22:34;16.80;99.90
32839;DHT22;19182;41.820;12.808;2022-12-18T13:25:00;16.60;99.90
32839;DHT22;19182;41.820;12.808;2022-12-18T13:30:56;16.50;99.90
32839;DHT22;19182;41.820;12.808;2022-12-18T13:35:41;16.10;99.90
32839;DHT22;19182;41.820;12.808;2022-12-18T13:45:59;15.60;99.90
32839;DHT22;19182;41.820;12.808;2022-12-18T13:48:26;15.50;99.90
32839;DHT22;19182;41.820;12.808;2022-12-18T13:50:53;15.40;99.90
32839;DHT22;19182;41.820;12.808;2022-12-18T13:53:21;15.30;99.90
32839;DHT22;19182;41.820;12.808;2022-12-18T13:55:49;15.20;99.90
32839;DHT22;19182;41.820;12.808;2022-12-18T13:58:15;15.00;99.90
32839;DHT22;19182;41.820;12.808;2022-12-18T14:00:42;14.90;99.90
32839;DHT22;19182;41.820;12.808;2022-12-18T14:03:19;14.70;99.90
32839;DHT22;19182;41.820;12.808;2022-12-18T14:05:52;14.60;99.90
32839;DHT22;19182;41.820;12.808;2022-12-18T14:08:18;14.40;99.90
32839;DHT22;19182;41.820;12.808;2022-12-18T14:10:45;14.30;99.90
32839;DHT22;19182;41.820;12.808;2022-12-18T14:13:15;14.30;99.90
32839;DHT22;19182;41.820;12.808;2022-12-18T14:15:42;14.10;99.90
32839;DHT22;19182;41.820;12.808;2022-12-18T14:20:41;14.00;99.90
32839;DHT22;19182;41.820;12.808;2022-12-18T14:23:54;14.00;99.90
32839;DHT22;19182;41.820;12.808;2022-12-18T14:25:54;13.80;99.90
32839;DHT22;19182;41.820;12.808;2022-12-18T14:28:19;15.70;99.90
32839;DHT22;19182;41.820;12.808;2022-12-18T14:30:47;13.60;99.90
32839;DHT22;19182;41.820;12.808;2022-12-18T14:33:17;13.60;99.90
32839;DHT22;19182;41.820;12.808;2022-12-18T14:40:47;13.40;99.90
32839;DHT22;19182;41.820;12.808;2022-12-18T14:43:12;13.20;99.90
32839;DHT22;19182;41.820;12.808;2022-12-18T14:45:39;13.20;99.90
32839;DHT22;19182;41.820;12.808;2022-12-18T14:48:11;13.10;99.90
32839;DHT22;19182;41.820;12.808;2022-12-18T14:50:39;13.10;99.90
32839;DHT22;19182;41.820;12.808;2022-12-18T14:53:06;13.10;99.90
32839;DHT22;19182;41.820;12.808;2022-12-18T14:55:37;13.10;99.90
32839;DHT22;19182;41.820;12.808;2022-12-18T14:58:04;13.20;99.90
32839;DHT22;19182;41.820;12.808;2022-12-18T15:00:33;13.10;99.90
32839;DHT22;19182;41.820;12.808;2022-12-18T15:03:10;13.00;99.90
32839;DHT22;19182;41.820;12.808;2022-12-18T15:05:37;12.90;99.90
32839;DHT22;19182;41.820;12.808;2022-12-18T15:08:02;12.80;99.90
32839;DHT22;19182;41.820;12.808;2022-12-18T15:10:31;12.80;99.90
32839;DHT22;19182;41.820;12.808;2022-12-18T15:18:21;12.60;99.90
32839;DHT22;19182;41.820;12.808;2022-12-18T15:20:53;12.60;99.90
32839;DHT22;19182;41.820;12.808;2022-12-18T15:26:00;12.40;99.90
32839;DHT22;19182;41.820;12.808;2022-12-18T15:28:28;12.40;99.90
32839;DHT22;19182;41.820;12.808;2022-12-18T15:31:03;12.40;99.90
32839;DHT22;19182;41.820;12.808;2022-12-18T15:33:33;12.50;99.90
32839;DHT22;19182;41.820;12.808;2022-12-18T15:36:04;12.30;99.90
32839;DHT22;19182;41.820;12.808;2022-12-18T15:38:30;12.30;99.90
32839;DHT22;19182;41.820;12.808;2022-12-18T15:40:56;12.30;99.90
32839;DHT22;19182;41.820;12.808;2022-12-18T15:43:22;12.20;99.90
32839;DHT22;19182;41.820;12.808;2022-12-18T15:46:05;12.20;99.90
32839;DHT22;19182;41.820;12.808;2022-12-18T15:48:32;12.10;99.90
32839;DHT22;19182;41.820;12.808;2022-12-18T15:50:58;13.70;99.90
32839;DHT22;19182;41.820;12.808;2022-12-18T15:53:25;12.00;99.90
32839;DHT22;19182;41.820;12.808;2022-12-18T15:55:53;11.90;99.90
32839;DHT22;19182;41.820;12.808;2022-12-18T15:58:41;12.00;99.90
32839;DHT22;19182;41.820;12.808;2022-12-18T16:01:07;12.00;99.90
32839;DHT22;19182;41.820;12.808;2022-12-18T16:03:35;12.00;99.90
32839;DHT22;19182;41.820;12.808;2022-12-18T16:06:00;12.00;99.90
32839;DHT22;19182;41.820;12.808;2022-12-18T16:08:30;12.00;99.90
32839;DHT22;19182;41.820;12.808;2022-12-18T16:10:56;11.90;99.90
32839;DHT22;19182;41.820;12.808;2022-12-18T16:13:22;11.80;99.90
32839;DHT22;19182;41.820;12.808;2022-12-18T16:15:48;11.80;99.90
32839;DHT22;19182;41.820;12.808;2022-12-18T16:18:14;12.60;99.90
32839;DHT22;19182;41.820;12.808;2022-12-18T16:20:40;11.70;99.90
32839;DHT22;19182;41.820;12.808;2022-12-18T16:23:06;11.60;99.90
32839;DHT22;19182;41.820;12.808;2022-12-18T16:25:31;10.30;99.90
32839;DHT22;19182;41.820;12.808;2022-12-18T16:27:57;11.60;99.90
32839;DHT22;19182;41.820;12.808;2022-12-18T16:30:25;11.50;99.90
32839;DHT22;19182;41.820;12.808;2022-12-18T16:32:56;11.40;99.90
32839;DHT22;19182;41.820;12.808;2022-12-18T16:35:22;11.30;99.90
32839;DHT22;19182;41.820;12.808;2022-12-18T16:37:47;11.30;99.90
32839;DHT22;19182;41.820;12.808;2022-12-18T16:40:14;11.30;99.90
32839;DHT22;19182;41.820;12.808;2022-12-18T16:42:43;11.20;99.90
32839;DHT22;19182;41.820;12.808;2022-12-18T16:45:12;11.20;99.90
32839;DHT22;19182;41.820;12.808;2022-12-18T16:47:38;11.10;99.90
32839;DHT22;19182;41.820;12.808;2022-12-18T16:50:04;11.10;99.90
32839;DHT22;19182;41.820;12.808;2022-12-18T16:52:30;11.00;99.90
32839;DHT22;19182;41.820;12.808;2022-12-18T16:54:56;10.90;99.90
32839;DHT22;19182;41.820;12.808;2022-12-18T16:57:23;10.90;99.90
32839;DHT22;19182;41.820;12.808;2022-12-18T16:59:48;10.90;99.90
32839;DHT22;19182;41.820;12.808;2022-12-18T17:02:17;10.90;99.90
32839;DHT22;19182;41.820;12.808;2022-12-18T17:04:43;10.80;99.90
32839;DHT22;19182;41.820;12.808;2022-12-18T17:07:08;10.70;99.90
32839;DHT22;19182;41.820;12.808;2022-12-18T17:09:36;10.60;99.90
32839;DHT22;19182;41.820;12.808;2022-12-18T17:12:01;10.50;99.90
32839;DHT22;19182;41.820;12.808;2022-12-18T17:14:28;10.40;99.90
32839;DHT22;19182;41.820;12.808;2022-12-18T17:16:54;10.30;99.90
32839;DHT22;19182;41.820;12.808;2022-12-18T17:19:22;10.30;99.90
32839;DHT22;19182;41.820;12.808;2022-12-18T17:21:48;10.30;99.90
32839;DHT22;19182;41.820;12.808;2022-12-18T17:24:16;10.20;99.90
32839;DHT22;19182;41.820;12.808;2022-12-18T17:26:41;10.10;99.90
32839;DHT22;19182;41.820;12.808;2022-12-18T17:29:11;10.10;99.90
32839;DHT22;19182;41.820;12.808;2022-12-18T17:31:39;10.00;99.90
32839;DHT22;19182;41.820;12.808;2022-12-18T17:34:06;10.00;99.90
32839;DHT22;19182;41.820;12.808;2022-12-18T17:36:32;10.00;99.90